Puntilla Lake, Alaska
Current Conditions -  °F | °C
As of 1:56 PM on Tuesday 21 Oct 2014 (Local Time) from PAFS Reporting Station
Clear Clear  
Wind Chill: 26°   Ceiling: Unl
Heat Index: 33°   Visibility: 10mi
Dew Point: 23°   Wind: 8mph
Humidity: 67%   Direction: 50°NE
Pressure: 29.41"   Gusts: NA
Location:  62.1°N, 152.75°W
Report Text: PAFS 212156Z AUTO 05007KT 10SM CLR 01/M05 A2941 RMK AO2 TSNO T00051050 SLP972 $
Loading
Personal Weather Stations






























Interactive Weather Map
Tropical Storm Tracking
New forecast layout! Learn more

10-Day Weather Forecast

Advertisements
Track Severe Weather on mobile